Time;durP1;ratioP1;P1;durP2;ratioP2;P2;SDS_P1;SDS_P2;PMS_P1;PMS_P2;Temp;Humidity;BMP_temperature;BMP_pressure;BME280_temperature;BME280_humidity;BME280_pressure;Samples;Min_cycle;Max_cycle;Signal;HPM_P1;HPM_P2
2022/09/25 00:00:21;;;;;;;;;;;7.80;99.90;;;;;;4129624;28;20346;-62
2022/09/25 00:02:22;;;;;;;;;;;7.80;99.90;;;;;;4128789;28;19956;-64
2022/09/25 00:04:23;;;;;;;;;;;7.70;99.90;;;;;;4127705;28;19929;-61
2022/09/25 00:06:25;;;;;;;;;;;7.70;99.90;;;;;;4128543;28;19937;-62
2022/09/25 00:08:26;;;;;;;;;;;7.80;99.90;;;;;;4129669;28;19956;-61
2022/09/25 00:10:28;;;;;;;;;;;7.80;99.90;;;;;;4129116;28;20341;-60
2022/09/25 00:12:29;;;;;;;;;;;7.70;99.90;;;;;;4145585;28;19910;-62
2022/09/25 00:14:30;;;;;;;;;;;7.70;99.90;;;;;;4144720;28;19905;-61
2022/09/25 00:16:31;;;;;;;;;;;7.70;99.90;;;;;;4145638;28;20696;-60
2022/09/25 00:20:59;;;;;;;;;;;7.70;99.90;;;;;;4145874;28;19968;-61
2022/09/25 00:23:01;;;;;;;;;;;7.80;99.90;;;;;;4143281;28;19906;-61
2022/09/25 00:25:02;;;;;;;;;;;7.70;99.90;;;;;;4147999;28;19917;-61
2022/09/25 00:27:04;;;;;;;;;;;7.70;99.90;;;;;;4148061;28;20420;-57
2022/09/25 00:29:06;;;;;;;;;;;7.80;99.90;;;;;;4147795;28;19905;-60
2022/09/25 00:31:08;;;;;;;;;;;7.80;99.90;;;;;;4140194;28;19940;-62
2022/09/25 00:33:09;;;;;;;;;;;7.80;99.90;;;;;;4131258;28;19909;-61
2022/09/25 00:35:10;;;;;;;;;;;7.90;99.90;;;;;;4132250;28;19906;-61
2022/09/25 00:37:11;;;;;;;;;;;7.90;99.90;;;;;;4138630;28;20548;-60
2022/09/25 00:39:11;;;;;;;;;;;7.90;99.90;;;;;;4146383;28;19910;-61
2022/09/25 00:41:13;;;;;;;;;;;7.90;99.90;;;;;;4131115;28;19909;-61
2022/09/25 00:43:14;;;;;;;;;;;7.90;99.90;;;;;;4132206;28;19906;-60
2022/09/25 00:45:19;;;;;;;;;;;7.90;99.90;;;;;;4131244;28;19960;-62
2022/09/25 00:47:23;;;;;;;;;;;7.90;99.90;;;;;;4133297;28;19914;-61
2022/09/25 00:49:24;;;;;;;;;;;7.80;99.90;;;;;;4130873;28;19909;-61
2022/09/25 00:51:46;;;;;;;;;;;7.80;99.90;;;;;;4131957;28;19956;-61
2022/09/25 00:53:47;;;;;;;;;;;7.80;99.90;;;;;;4120252;28;19979;-61
2022/09/25 00:55:48;;;;;;;;;;;7.70;99.90;;;;;;4131872;28;20325;-61
2022/09/25 00:57:51;;;;;;;;;;;7.70;99.90;;;;;;4130836;28;20321;-61
2022/09/25 00:59:54;;;;;;;;;;;7.70;99.90;;;;;;4137540;28;19913;-62
2022/09/25 01:01:56;;;;;;;;;;;7.70;99.90;;;;;;4147201;28;20360;-61
2022/09/25 01:03:58;;;;;;;;;;;7.80;99.90;;;;;;4141082;28;19921;-60
2022/09/25 01:06:01;;;;;;;;;;;7.90;99.90;;;;;;4131043;28;20449;-62
2022/09/25 01:08:03;;;;;;;;;;;7.90;99.90;;;;;;4130817;28;19961;-61
2022/09/25 01:10:07;;;;;;;;;;;7.80;99.90;;;;;;4131371;28;19936;-61
2022/09/25 01:12:08;;;;;;;;;;;7.90;99.90;;;;;;4130665;28;19972;-61
2022/09/25 01:14:09;;;;;;;;;;;7.80;99.90;;;;;;4131692;28;19906;-62
2022/09/25 01:16:16;;;;;;;;;;;7.80;99.90;;;;;;4137168;28;19979;-61
2022/09/25 01:18:20;;;;;;;;;;;7.80;99.90;;;;;;4147681;28;19917;-61
2022/09/25 01:20:33;;;;;;;;;;;7.80;99.90;;;;;;4146858;28;20332;-61
2022/09/25 01:22:40;;;;;;;;;;;7.80;99.90;;;;;;4146136;28;19921;-61
2022/09/25 01:24:53;;;;;;;;;;;7.80;99.90;;;;;;4146715;28;19921;-61
2022/09/25 01:26:54;;;;;;;;;;;7.80;99.90;;;;;;4142175;28;19960;-61
2022/09/25 01:29:04;;;;;;;;;;;7.80;99.90;;;;;;4130528;28;19910;-61
2022/09/25 01:31:27;;;;;;;;;;;7.80;99.90;;;;;;4131506;28;19910;-60
2022/09/25 01:33:31;;;;;;;;;;;7.80;99.90;;;;;;4130041;28;19960;-61
2022/09/25 01:35:47;;;;;;;;;;;7.90;99.90;;;;;;4133670;28;19968;-61
2022/09/25 01:37:51;;;;;;;;;;;7.90;99.90;;;;;;4146311;28;19964;-60
2022/09/25 01:40:06;;;;;;;;;;;7.90;99.90;;;;;;4147579;28;19963;-61
2022/09/25 01:42:07;;;;;;;;;;;7.90;99.90;;;;;;4145117;28;20352;-61
2022/09/25 01:44:12;;;;;;;;;;;8.00;99.90;;;;;;4131473;28;19910;-60
2022/09/25 01:46:20;;;;;;;;;;;8.00;99.90;;;;;;4130581;28;19992;-61
2022/09/25 01:48:29;;;;;;;;;;;8.00;99.90;;;;;;4130983;28;20317;-60
2022/09/25 01:50:39;;;;;;;;;;;8.00;99.90;;;;;;4130040;28;20354;-60
2022/09/25 01:52:42;;;;;;;;;;;8.00;99.90;;;;;;4145719;28;19913;-61
2022/09/25 01:54:50;;;;;;;;;;;8.10;99.90;;;;;;4146091;28;19964;-61
2022/09/25 01:56:57;;;;;;;;;;;8.10;99.90;;;;;;4146690;28;19960;-61
2022/09/25 01:59:16;;;;;;;;;;;8.10;99.90;;;;;;4140590;28;19917;-61
2022/09/25 02:01:21;;;;;;;;;;;8.10;99.90;;;;;;4136944;28;20420;-61
2022/09/25 02:03:25;;;;;;;;;;;8.10;99.90;;;;;;4137524;28;19914;-60
2022/09/25 02:05:32;;;;;;;;;;;8.10;99.90;;;;;;4143342;28;19971;-61
2022/09/25 02:07:35;;;;;;;;;;;8.10;99.90;;;;;;4146055;28;19909;-60
2022/09/25 02:09:40;;;;;;;;;;;8.00;99.90;;;;;;4147076;28;19909;-61
2022/09/25 02:11:47;;;;;;;;;;;8.00;99.90;;;;;;4145434;28;19960;-61
2022/09/25 02:13:50;;;;;;;;;;;8.00;99.90;;;;;;4145730;28;19936;-60
2022/09/25 02:15:54;;;;;;;;;;;8.00;99.90;;;;;;4130261;28;19905;-60
2022/09/25 02:20:31;;;;;;;;;;;8.00;99.90;;;;;;4129966;28;19960;-60
2022/09/25 02:22:34;;;;;;;;;;;8.00;99.90;;;;;;4131688;28;20364;-61
2022/09/25 02:24:47;;;;;;;;;;;8.00;99.90;;;;;;4129497;28;19972;-61
2022/09/25 02:26:49;;;;;;;;;;;8.00;99.90;;;;;;4145446;28;19909;-60
2022/09/25 02:28:52;;;;;;;;;;;8.00;99.90;;;;;;4129530;28;19906;-60
2022/09/25 02:30:55;;;;;;;;;;;8.00;99.90;;;;;;4128965;28;19905;-61
2022/09/25 02:32:56;;;;;;;;;;;8.00;99.90;;;;;;4128904;28;19913;-61
2022/09/25 02:34:58;;;;;;;;;;;7.90;99.90;;;;;;4135996;28;19917;-61
2022/09/25 02:36:59;;;;;;;;;;;7.90;99.90;;;;;;4144162;28;19910;-61
2022/09/25 02:39:01;;;;;;;;;;;7.90;99.90;;;;;;4146012;28;20408;-61
2022/09/25 02:41:06;;;;;;;;;;;7.90;99.90;;;;;;4146093;28;20657;-60
2022/09/25 02:43:13;;;;;;;;;;;7.90;99.90;;;;;;4145639;28;19909;-61
2022/09/25 02:45:17;;;;;;;;;;;7.90;99.90;;;;;;4146048;28;19960;-62
2022/09/25 02:47:33;;;;;;;;;;;7.90;99.90;;;;;;4145659;28;20324;-61
2022/09/25 02:49:42;;;;;;;;;;;7.90;99.90;;;;;;4146243;28;20305;-61
2022/09/25 02:51:46;;;;;;;;;;;7.90;99.90;;;;;;4145563;28;20328;-62
2022/09/25 02:54:04;;;;;;;;;;;7.80;99.90;;;;;;4138104;28;20374;-61
2022/09/25 02:56:11;;;;;;;;;;;7.90;99.90;;;;;;4145549;28;19964;-61
2022/09/25 02:58:24;;;;;;;;;;;7.90;99.90;;;;;;4131083;28;19909;-61
2022/09/25 03:00:26;;;;;;;;;;;7.90;99.90;;;;;;4129129;28;20378;-61
2022/09/25 03:02:27;;;;;;;;;;;8.00;99.90;;;;;;4129918;28;19909;-60
2022/09/25 03:04:31;;;;;;;;;;;8.00;99.90;;;;;;4128639;28;19925;-61
2022/09/25 03:06:32;;;;;;;;;;;8.00;99.90;;;;;;4130058;28;19905;-61
2022/09/25 03:08:37;;;;;;;;;;;8.00;99.90;;;;;;4128899;28;20397;-60
2022/09/25 03:10:38;;;;;;;;;;;8.00;99.90;;;;;;4130063;28;20317;-60
2022/09/25 03:12:39;;;;;;;;;;;8.00;99.90;;;;;;4128792;28;19909;-61
2022/09/25 03:14:40;;;;;;;;;;;8.00;99.90;;;;;;4130067;28;19916;-61
2022/09/25 03:16:44;;;;;;;;;;;8.10;99.90;;;;;;4130619;28;19909;-60
2022/09/25 03:18:48;;;;;;;;;;;8.00;99.90;;;;;;4146201;28;19906;-61
2022/09/25 03:20:49;;;;;;;;;;;8.00;99.90;;;;;;4143546;28;19905;-61
2022/09/25 03:22:50;;;;;;;;;;;8.00;99.90;;;;;;4144278;28;19909;-61
2022/09/25 03:24:52;;;;;;;;;;;8.00;99.90;;;;;;4140294;28;19976;-61
2022/09/25 03:26:53;;;;;;;;;;;8.10;99.90;;;;;;4129457;28;20346;-62
2022/09/25 03:28:54;;;;;;;;;;;8.00;99.90;;;;;;4128888;28;19906;-61
2022/09/25 03:30:59;;;;;;;;;;;8.00;99.90;;;;;;4129063;28;20251;-61
2022/09/25 03:33:00;;;;;;;;;;;8.00;99.90;;;;;;4129110;28;19948;-60
2022/09/25 03:35:01;;;;;;;;;;;8.00;99.90;;;;;;4129762;28;19910;-61
2022/09/25 03:37:02;;;;;;;;;;;8.00;99.90;;;;;;4133371;28;20324;-60
2022/09/25 03:39:04;;;;;;;;;;;8.00;99.90;;;;;;4128606;28;19910;-60
2022/09/25 03:41:07;;;;;;;;;;;8.00;99.90;;;;;;4129803;28;19910;-60
2022/09/25 03:43:08;;;;;;;;;;;8.00;99.90;;;;;;4128419;28;19910;-61
2022/09/25 03:45:10;;;;;;;;;;;8.00;99.90;;;;;;4135452;28;19917;-62
2022/09/25 03:47:10;;;;;;;;;;;8.00;99.90;;;;;;4145310;28;19988;-62
2022/09/25 03:49:12;;;;;;;;;;;8.00;99.90;;;;;;4139681;28;20353;-61
2022/09/25 03:51:14;;;;;;;;;;;8.00;99.90;;;;;;4133555;28;19913;-61
2022/09/25 03:53:16;;;;;;;;;;;8.00;99.90;;;;;;4135918;28;19910;-61
2022/09/25 03:55:18;;;;;;;;;;;8.00;99.90;;;;;;4128387;28;19914;-60
2022/09/25 03:57:19;;;;;;;;;;;7.90;99.90;;;;;;4129412;28;19914;-61
2022/09/25 03:59:21;;;;;;;;;;;8.00;99.90;;;;;;4131417;28;19964;-61
2022/09/25 04:01:22;;;;;;;;;;;8.00;99.90;;;;;;4132446;28;19956;-61
2022/09/25 04:03:26;;;;;;;;;;;8.00;99.90;;;;;;4131777;28;20003;-61
2022/09/25 04:05:27;;;;;;;;;;;8.10;99.90;;;;;;4132094;28;19995;-61
2022/09/25 04:07:29;;;;;;;;;;;8.10;99.90;;;;;;4132299;28;20396;-61
2022/09/25 04:09:31;;;;;;;;;;;8.10;99.90;;;;;;4141547;28;19975;-61
2022/09/25 04:11:32;;;;;;;;;;;8.10;99.90;;;;;;4148738;28;19905;-61
2022/09/25 04:13:35;;;;;;;;;;;8.10;99.90;;;;;;4147591;28;19912;-61
2022/09/25 04:15:36;;;;;;;;;;;8.10;99.90;;;;;;4146874;28;20360;-61
2022/09/25 04:17:37;;;;;;;;;;;8.10;99.90;;;;;;4147982;28;19905;-61
2022/09/25 04:19:38;;;;;;;;;;;8.20;99.90;;;;;;4148838;28;20391;-61
2022/09/25 04:21:39;;;;;;;;;;;8.20;99.90;;;;;;4147239;28;19960;-59
2022/09/25 04:23:40;;;;;;;;;;;8.10;99.90;;;;;;4147545;28;19951;-61
2022/09/25 04:25:40;;;;;;;;;;;8.10;99.90;;;;;;4142735;28;19917;-61
2022/09/25 04:27:45;;;;;;;;;;;8.10;99.90;;;;;;4148545;28;19947;-61
2022/09/25 04:29:46;;;;;;;;;;;8.10;99.90;;;;;;4147168;28;20420;-61
2022/09/25 04:33:44;;;;;;;;;;;8.10;99.90;;;;;;4148475;28;19909;-62
2022/09/25 04:34:08;;;;;;;;;;;8.10;99.90;;;;;;4147163;28;19902;-60
2022/09/25 04:36:09;;;;;;;;;;;8.10;99.90;;;;;;4148336;28;20889;-61
2022/09/25 04:38:10;;;;;;;;;;;8.20;99.90;;;;;;4140751;28;19906;-60
2022/09/25 04:40:11;;;;;;;;;;;8.20;99.90;;;;;;4147838;28;19909;-61
2022/09/25 04:42:12;;;;;;;;;;;8.30;99.90;;;;;;4144446;28;19906;-60
2022/09/25 04:44:13;;;;;;;;;;;8.30;99.90;;;;;;4131301;28;19964;-60
2022/09/25 04:46:14;;;;;;;;;;;8.30;99.90;;;;;;4132059;28;19957;-62
2022/09/25 04:48:15;;;;;;;;;;;8.40;99.90;;;;;;4130743;28;19917;-61
2022/09/25 04:50:15;;;;;;;;;;;8.40;99.90;;;;;;4131927;28;20288;-61
2022/09/25 04:52:17;;;;;;;;;;;8.30;99.90;;;;;;4131060;28;19914;-60
2022/09/25 04:54:18;;;;;;;;;;;8.40;99.90;;;;;;4131935;28;19906;-60
2022/09/25 04:56:19;;;;;;;;;;;8.40;99.90;;;;;;4130875;28;19905;-61
2022/09/25 04:58:20;;;;;;;;;;;8.40;99.90;;;;;;4131855;28;20322;-61
2022/09/25 05:00:21;;;;;;;;;;;8.40;99.90;;;;;;4131474;28;19905;-61
2022/09/25 05:02:25;;;;;;;;;;;8.40;99.90;;;;;;4147942;28;19951;-61
2022/09/25 05:04:26;;;;;;;;;;;8.40;99.90;;;;;;4145531;28;19967;-62
2022/09/25 05:06:28;;;;;;;;;;;8.40;99.90;;;;;;4147607;28;19914;-61
2022/09/25 05:08:29;;;;;;;;;;;8.40;99.90;;;;;;4146865;28;19957;-61
2022/09/25 05:10:32;;;;;;;;;;;8.40;99.90;;;;;;4147200;28;19909;-61
2022/09/25 05:12:33;;;;;;;;;;;8.40;99.90;;;;;;4147196;28;19913;-61
2022/09/25 05:14:34;;;;;;;;;;;8.50;99.90;;;;;;4146735;28;19913;-61
2022/09/25 05:16:35;;;;;;;;;;;8.50;99.90;;;;;;4145402;28;20007;-61
2022/09/25 05:18:36;;;;;;;;;;;8.50;99.90;;;;;;4130155;28;19916;-61
2022/09/25 05:20:37;;;;;;;;;;;8.50;99.90;;;;;;4131607;28;20293;-62
2022/09/25 05:22:38;;;;;;;;;;;8.50;99.90;;;;;;4131276;28;20362;-62
2022/09/25 05:24:39;;;;;;;;;;;8.50;99.90;;;;;;4131463;28;20384;-61
2022/09/25 05:26:40;;;;;;;;;;;8.50;99.90;;;;;;4130064;28;19937;-61
2022/09/25 05:28:41;;;;;;;;;;;8.60;99.90;;;;;;4131552;28;19906;-61
2022/09/25 05:30:42;;;;;;;;;;;8.50;99.90;;;;;;4130312;28;20492;-62
2022/09/25 05:32:48;;;;;;;;;;;8.50;99.90;;;;;;4131270;28;19905;-62
2022/09/25 05:34:49;;;;;;;;;;;8.60;99.90;;;;;;4128695;28;19909;-61
2022/09/25 05:36:51;;;;;;;;;;;8.60;99.90;;;;;;4134555;28;19910;-61
2022/09/25 05:38:52;;;;;;;;;;;8.60;99.90;;;;;;4139611;28;19955;-61
2022/09/25 05:40:55;;;;;;;;;;;8.60;99.90;;;;;;4142121;28;19909;-60
2022/09/25 05:42:57;;;;;;;;;;;8.60;99.90;;;;;;4162300;28;20247;-61
2022/09/25 05:44:58;;;;;;;;;;;8.60;99.90;;;;;;4162436;28;19913;-61
2022/09/25 05:46:59;;;;;;;;;;;8.60;99.90;;;;;;4147472;28;19917;-61
2022/09/25 05:48:59;;;;;;;;;;;8.60;99.90;;;;;;4146288;28;20733;-60
2022/09/25 05:51:00;;;;;;;;;;;8.60;99.90;;;;;;4162377;28;19909;-61
2022/09/25 05:53:03;;;;;;;;;;;8.70;99.90;;;;;;4146083;28;20361;-64
2022/09/25 05:55:05;;;;;;;;;;;8.70;99.90;;;;;;4146828;28;19936;-60
2022/09/25 05:57:05;;;;;;;;;;;8.70;99.90;;;;;;4145367;28;19964;-62
2022/09/25 05:59:06;;;;;;;;;;;8.70;99.90;;;;;;4147154;28;19912;-62
2022/09/25 06:01:08;;;;;;;;;;;8.70;99.90;;;;;;4146208;28;19943;-62
2022/09/25 06:03:09;;;;;;;;;;;8.80;99.90;;;;;;4146787;28;19909;-63
2022/09/25 06:05:10;;;;;;;;;;;8.80;99.90;;;;;;4141261;28;19964;-63
2022/09/25 06:07:11;;;;;;;;;;;8.90;99.90;;;;;;4129420;28;20066;-61
2022/09/25 06:09:12;;;;;;;;;;;8.90;99.90;;;;;;4135847;28;19956;-61
2022/09/25 06:11:13;;;;;;;;;;;8.90;99.90;;;;;;4136068;28;19936;-64
2022/09/25 06:13:14;;;;;;;;;;;8.90;99.90;;;;;;4162237;28;20344;-62
2022/09/25 06:15:15;;;;;;;;;;;9.00;99.90;;;;;;4161133;28;19948;-62
2022/09/25 06:17:16;;;;;;;;;;;9.00;99.90;;;;;;4146534;28;20008;-63
2022/09/25 06:19:17;;;;;;;;;;;9.00;99.90;;;;;;4145342;28;19909;-63
2022/09/25 06:21:17;;;;;;;;;;;9.10;99.90;;;;;;4145262;28;19909;-61
2022/09/25 06:23:18;;;;;;;;;;;9.20;99.90;;;;;;4145528;28;19906;-66
2022/09/25 06:25:20;;;;;;;;;;;9.20;99.90;;;;;;4145419;28;19948;-61
2022/09/25 06:27:22;;;;;;;;;;;9.20;99.90;;;;;;4145214;28;19963;-62
2022/09/25 06:29:23;;;;;;;;;;;9.30;99.90;;;;;;4139280;28;19956;-62
2022/09/25 06:31:24;;;;;;;;;;;9.30;99.90;;;;;;4133907;28;19913;-62
2022/09/25 06:33:25;;;;;;;;;;;9.30;99.90;;;;;;4154373;28;19974;-62
2022/09/25 06:35:27;;;;;;;;;;;9.30;99.90;;;;;;4161944;28;19972;-63
2022/09/25 06:37:28;;;;;;;;;;;9.40;99.90;;;;;;4148647;28;19913;-62
2022/09/25 06:39:32;;;;;;;;;;;9.40;99.90;;;;;;4138280;28;19913;-62
2022/09/25 06:41:32;;;;;;;;;;;9.40;99.90;;;;;;4137564;28;19913;-61
2022/09/25 06:43:33;;;;;;;;;;;9.60;99.90;;;;;;4145624;28;19913;-64
2022/09/25 06:45:34;;;;;;;;;;;9.70;99.90;;;;;;4133902;28;19924;-61
2022/09/25 06:47:35;;;;;;;;;;;9.70;99.90;;;;;;4130131;28;20267;-63
2022/09/25 06:49:36;;;;;;;;;;;9.70;99.90;;;;;;4129344;28;19956;-64
2022/09/25 06:51:38;;;;;;;;;;;9.70;99.90;;;;;;4130295;28;19909;-62
2022/09/25 06:53:39;;;;;;;;;;;9.80;99.90;;;;;;4130998;28;19913;-63
2022/09/25 06:55:40;;;;;;;;;;;9.80;99.90;;;;;;4143115;28;20361;-64
2022/09/25 06:57:40;;;;;;;;;;;9.80;99.90;;;;;;4129224;28;19952;-65
2022/09/25 06:59:41;;;;;;;;;;;9.90;99.90;;;;;;4130018;28;19912;-61
2022/09/25 07:01:42;;;;;;;;;;;9.90;99.90;;;;;;4128530;28;19905;-63
2022/09/25 07:03:43;;;;;;;;;;;10.10;99.90;;;;;;4129454;28;20381;-66
2022/09/25 07:05:46;;;;;;;;;;;10.20;99.90;;;;;;4128674;28;19914;-65
2022/09/25 07:07:47;;;;;;;;;;;10.50;99.90;;;;;;4128463;28;19910;-59
2022/09/25 07:09:48;;;;;;;;;;;10.70;99.90;;;;;;4134342;28;19910;-63
2022/09/25 07:11:51;;;;;;;;;;;10.90;99.90;;;;;;4142152;28;20040;-65
2022/09/25 07:13:55;;;;;;;;;;;11.10;99.90;;;;;;4145078;28;20362;-62
2022/09/25 07:15:58;;;;;;;;;;;11.10;99.90;;;;;;4145348;28;20258;-61
2022/09/25 07:17:59;;;;;;;;;;;11.20;99.90;;;;;;4143445;28;19910;-62
2022/09/25 07:20:00;;;;;;;;;;;11.20;99.90;;;;;;4143617;28;20853;-61
2022/09/25 07:22:02;;;;;;;;;;;11.10;99.90;;;;;;4143699;28;19960;-61
2022/09/25 07:24:02;;;;;;;;;;;11.10;99.90;;;;;;4144789;28;19906;-61
2022/09/25 07:26:09;;;;;;;;;;;11.20;99.90;;;;;;4139617;28;19939;-60
2022/09/25 07:28:14;;;;;;;;;;;11.20;99.90;;;;;;4144625;28;20463;-63
2022/09/25 07:30:15;;;;;;;;;;;11.30;99.90;;;;;;4144126;28;20366;-65
2022/09/25 07:32:16;;;;;;;;;;;11.40;99.90;;;;;;4129554;28;19916;-62
2022/09/25 07:34:17;;;;;;;;;;;11.30;99.90;;;;;;4137895;28;20409;-63
2022/09/25 07:36:18;;;;;;;;;;;11.40;99.90;;;;;;4143577;28;19913;-63
2022/09/25 07:38:20;;;;;;;;;;;11.30;99.90;;;;;;4145880;28;19909;-62
2022/09/25 07:40:21;;;;;;;;;;;11.30;99.90;;;;;;4142877;28;19983;-67
2022/09/25 07:42:22;;;;;;;;;;;11.40;99.90;;;;;;4142306;28;20373;-58
2022/09/25 07:44:23;;;;;;;;;;;11.50;99.90;;;;;;4144592;28;20314;-62
2022/09/25 07:46:25;;;;;;;;;;;11.50;99.90;;;;;;4145401;28;19917;-62
2022/09/25 07:48:26;;;;;;;;;;;11.60;99.90;;;;;;4159615;28;19959;-62
2022/09/25 07:50:28;;;;;;;;;;;11.70;99.90;;;;;;4144899;28;19913;-61
2022/09/25 07:52:29;;;;;;;;;;;11.80;99.90;;;;;;4144794;28;19909;-62
2022/09/25 07:54:31;;;;;;;;;;;11.90;99.90;;;;;;4144716;28;19916;-63
2022/09/25 07:56:33;;;;;;;;;;;12.00;99.90;;;;;;4144829;28;19906;-63
2022/09/25 07:58:34;;;;;;;;;;;12.00;99.90;;;;;;4144344;28;19964;-61
2022/09/25 08:00:35;;;;;;;;;;;12.10;99.90;;;;;;4145203;28;19909;-63
2022/09/25 08:02:36;;;;;;;;;;;12.20;99.90;;;;;;4144132;28;19909;-63
2022/09/25 08:04:37;;;;;;;;;;;12.30;99.90;;;;;;4145378;28;19921;-63
2022/09/25 08:06:38;;;;;;;;;;;12.40;99.90;;;;;;4142504;28;19921;-63
2022/09/25 08:08:39;;;;;;;;;;;12.50;99.90;;;;;;4145297;28;20387;-63
2022/09/25 08:10:40;;;;;;;;;;;12.70;99.90;;;;;;4144259;28;19905;-62
2022/09/25 08:12:42;;;;;;;;;;;12.60;99.90;;;;;;4145262;28;20277;-62
2022/09/25 08:14:42;;;;;;;;;;;12.60;99.90;;;;;;4144143;28;19905;-62
2022/09/25 08:16:43;;;;;;;;;;;12.60;99.90;;;;;;4145344;28;19912;-62
2022/09/25 08:18:45;;;;;;;;;;;12.70;99.90;;;;;;4144599;28;19968;-63
2022/09/25 08:20:46;;;;;;;;;;;12.70;99.90;;;;;;4144664;28;20420;-61
2022/09/25 08:22:48;;;;;;;;;;;12.70;99.90;;;;;;4144913;28;19909;-62
2022/09/25 08:24:49;;;;;;;;;;;12.90;99.90;;;;;;4144163;28;20416;-62
2022/09/25 08:26:49;;;;;;;;;;;12.80;99.90;;;;;;4144471;28;19953;-61
2022/09/25 08:28:50;;;;;;;;;;;12.90;99.90;;;;;;4143915;28;19912;-62
2022/09/25 08:30:52;;;;;;;;;;;13.00;99.90;;;;;;4143417;28;20053;-64
2022/09/25 08:32:53;;;;;;;;;;;13.00;99.90;;;;;;4143944;28;20424;-63
2022/09/25 08:34:55;;;;;;;;;;;13.00;99.90;;;;;;4144836;28;19916;-62
2022/09/25 08:36:56;;;;;;;;;;;13.00;99.90;;;;;;4144022;28;19964;-62
2022/09/25 08:38:59;;;;;;;;;;;13.00;99.90;;;;;;4144857;28;19910;-63
2022/09/25 08:41:08;;;;;;;;;;;13.00;99.90;;;;;;4143482;28;19909;-62
2022/09/25 08:43:15;;;;;;;;;;;13.10;99.90;;;;;;4145034;28;20415;-62
2022/09/25 08:50:20;;;;;;;;;;;13.40;99.90;;;;;;4138311;28;19956;-65
2022/09/25 08:52:21;;;;;;;;;;;13.50;99.90;;;;;;4145859;28;19905;-62
2022/09/25 08:54:24;;;;;;;;;;;13.70;99.90;;;;;;4146713;28;19905;-63
2022/09/25 08:56:28;;;;;;;;;;;13.80;99.90;;;;;;4147881;28;19905;-62
2022/09/25 08:58:33;;;;;;;;;;;14.00;99.90;;;;;;4146613;28;20266;-63
2022/09/25 09:00:34;;;;;;;;;;;13.90;99.90;;;;;;4147704;28;20345;-62
2022/09/25 09:02:37;;;;;;;;;;;14.00;99.90;;;;;;4146514;28;19906;-62
2022/09/25 09:04:43;;;;;;;;;;;13.90;99.90;;;;;;4162226;28;20443;-62
2022/09/25 09:06:46;;;;;;;;;;;14.10;99.90;;;;;;4146271;28;19959;-64
2022/09/25 09:08:59;;;;;;;;;;;14.10;99.90;;;;;;4147493;28;20325;-63
2022/09/25 09:11:04;;;;;;;;;;;14.10;99.90;;;;;;4144679;28;19909;-63
2022/09/25 09:13:05;;;;;;;;;;;14.10;99.90;;;;;;4146583;28;20504;-64
2022/09/25 09:15:15;;;;;;;;;;;14.20;99.90;;;;;;4146577;28;19901;-63
2022/09/25 09:17:20;;;;;;;;;;;14.30;99.90;;;;;;4147346;28;19906;-64
2022/09/25 09:19:21;;;;;;;;;;;14.50;99.90;;;;;;4146578;28;19913;-63
2022/09/25 09:21:35;;;;;;;;;;;14.50;99.90;;;;;;4146418;28;19926;-64
2022/09/25 09:23:51;;;;;;;;;;;14.50;99.90;;;;;;4139504;28;20320;-65
2022/09/25 09:26:30;;;;;;;;;;;14.50;99.90;;;;;;4137620;28;19913;-65
2022/09/25 09:28:47;;;;;;;;;;;14.50;99.90;;;;;;4131135;28;19918;-64
2022/09/25 09:31:07;;;;;;;;;;;14.70;99.90;;;;;;4128524;28;19964;-63
2022/09/25 09:33:34;;;;;;;;;;;14.60;99.90;;;;;;4116248;28;19961;-64
2022/09/25 09:35:35;;;;;;;;;;;14.70;99.90;;;;;;4147280;28;19971;-65
2022/09/25 09:37:48;;;;;;;;;;;14.70;99.90;;;;;;4145791;28;20004;-65
2022/09/25 09:39:55;;;;;;;;;;;14.90;99.90;;;;;;4146713;28;19972;-64
2022/09/25 09:42:00;;;;;;;;;;;15.10;99.90;;;;;;4145681;28;19971;-64
2022/09/25 09:44:11;;;;;;;;;;;15.20;99.90;;;;;;4145715;28;20334;-64
2022/09/25 09:46:30;;;;;;;;;;;15.20;99.90;;;;;;4138753;28;19917;-69
2022/09/25 09:48:36;;;;;;;;;;;15.40;99.90;;;;;;4132305;28;19917;-64
2022/09/25 09:50:40;;;;;;;;;;;15.60;99.90;;;;;;4133674;28;19913;-68
2022/09/25 09:52:42;;;;;;;;;;;15.80;99.90;;;;;;4157269;28;20606;-62
2022/09/25 09:54:46;;;;;;;;;;;15.70;99.90;;;;;;4162144;28;19951;-64
2022/09/25 09:56:49;;;;;;;;;;;15.70;99.90;;;;;;4149926;28;20522;-63
2022/09/25 09:59:00;;;;;;;;;;;15.70;99.90;;;;;;4145630;28;19906;-64
2022/09/25 10:01:02;;;;;;;;;;;15.80;99.90;;;;;;4146567;28;19960;-62
2022/09/25 10:03:09;;;;;;;;;;;15.70;99.90;;;;;;4144994;28;20420;-62
2022/09/25 10:05:16;;;;;;;;;;;15.70;99.90;;;;;;4145599;28;19983;-63
2022/09/25 10:07:18;;;;;;;;;;;15.60;99.90;;;;;;4145130;28;19917;-62
2022/09/25 10:09:19;;;;;;;;;;;15.50;99.90;;;;;;4160033;28;19912;-63
2022/09/25 10:11:20;;;;;;;;;;;15.60;99.90;;;;;;4161314;28;20357;-63
2022/09/25 10:13:26;;;;;;;;;;;15.60;99.90;;;;;;4157905;28;19928;-63
2022/09/25 10:15:32;;;;;;;;;;;15.70;99.90;;;;;;4145310;28;19909;-63
2022/09/25 10:17:35;;;;;;;;;;;15.70;99.90;;;;;;4145921;28;19909;-65
2022/09/25 10:19:49;;;;;;;;;;;15.80;99.90;;;;;;4149909;28;19914;-62
2022/09/25 10:21:50;;;;;;;;;;;15.80;99.90;;;;;;4133992;28;19967;-63
2022/09/25 10:23:52;;;;;;;;;;;15.90;99.90;;;;;;4135176;28;19914;-63
2022/09/25 10:25:53;;;;;;;;;;;15.80;99.90;;;;;;4137785;28;19909;-62
2022/09/25 10:27:54;;;;;;;;;;;15.90;99.90;;;;;;4139641;28;19918;-62
2022/09/25 10:30:01;;;;;;;;;;;16.00;99.90;;;;;;4136704;28;19934;-64
2022/09/25 10:32:02;;;;;;;;;;;16.10;99.90;;;;;;4134175;28;19909;-63
2022/09/25 10:34:12;;;;;;;;;;;16.30;99.90;;;;;;4130980;28;19917;-66
2022/09/25 10:36:13;;;;;;;;;;;16.50;99.90;;;;;;4137226;28;19972;-63
2022/09/25 10:38:26;;;;;;;;;;;16.70;99.90;;;;;;4136674;28;20318;-62
2022/09/25 10:40:30;;;;;;;;;;;16.70;99.90;;;;;;4136905;28;20401;-63
2022/09/25 10:42:32;;;;;;;;;;;16.80;99.90;;;;;;4136116;28;19917;-63
2022/09/25 10:44:33;;;;;;;;;;;17.00;99.90;;;;;;4133476;28;19955;-61
2022/09/25 10:51:31;;;;;;;;;;;17.30;99.90;;;;;;4099585;28;19913;-63
2022/09/25 10:53:32;;;;;;;;;;;17.20;99.90;;;;;;4131933;28;19917;-64
2022/09/25 10:55:35;;;;;;;;;;;17.20;99.90;;;;;;4134824;28;20393;-63
2022/09/25 10:57:37;;;;;;;;;;;17.10;99.90;;;;;;4140644;28;19964;-64
2022/09/25 10:59:38;;;;;;;;;;;17.10;99.90;;;;;;4154113;28;20426;-63
2022/09/25 11:01:40;;;;;;;;;;;17.10;99.90;;;;;;4162212;28;19913;-62
2022/09/25 11:03:50;;;;;;;;;;;17.10;99.90;;;;;;4151934;28;19921;-63
2022/09/25 11:05:55;;;;;;;;;;;17.20;99.90;;;;;;4145613;28;19914;-65
2022/09/25 11:07:57;;;;;;;;;;;17.20;99.90;;;;;;4143862;28;20373;-61
2022/09/25 11:09:58;;;;;;;;;;;17.20;99.90;;;;;;4145492;28;19956;-61
2022/09/25 11:12:07;;;;;;;;;;;17.10;99.90;;;;;;4143231;28;19932;-66
2022/09/25 11:14:21;;;;;;;;;;;17.00;99.90;;;;;;4145739;28;19978;-62
2022/09/25 11:16:40;;;;;;;;;;;17.00;99.90;;;;;;4144679;28;20404;-62
2022/09/25 11:18:44;;;;;;;;;;;17.00;99.90;;;;;;4146503;28;20017;-63
2022/09/25 11:20:59;;;;;;;;;;;17.00;99.90;;;;;;4144547;28;19913;-62
2022/09/25 11:23:03;;;;;;;;;;;16.90;99.90;;;;;;4136790;28;19909;-62
2022/09/25 11:25:10;;;;;;;;;;;16.90;99.90;;;;;;4132277;28;19909;-66
2022/09/25 11:27:30;;;;;;;;;;;17.00;99.90;;;;;;4137386;28;20440;-65
2022/09/25 11:29:32;;;;;;;;;;;16.90;99.90;;;;;;4125273;28;19976;-64
2022/09/25 11:31:40;;;;;;;;;;;16.90;99.90;;;;;;4134105;28;19971;-66
2022/09/25 11:33:47;;;;;;;;;;;16.90;99.90;;;;;;4126299;28;19910;-62
2022/09/25 11:36:07;;;;;;;;;;;16.90;99.90;;;;;;4134644;28;19979;-64
2022/09/25 11:38:11;;;;;;;;;;;16.90;99.90;;;;;;4134330;28;20336;-64
2022/09/25 11:42:47;;;;;;;;;;;16.80;99.90;;;;;;4136725;28;19967;-64
2022/09/25 11:45:01;;;;;;;;;;;16.80;99.90;;;;;;4134136;28;19937;-66
2022/09/25 11:47:23;;;;;;;;;;;16.70;99.90;;;;;;4148394;28;19921;-63
2022/09/25 11:49:30;;;;;;;;;;;16.80;99.90;;;;;;4137590;28;19996;-65
2022/09/25 11:51:55;;;;;;;;;;;16.70;99.90;;;;;;4133184;28;19917;-63
2022/09/25 11:54:05;;;;;;;;;;;16.70;99.90;;;;;;4111177;28;19921;-64
2022/09/25 11:56:06;;;;;;;;;;;16.70;99.90;;;;;;4126543;28;19910;-66
2022/09/25 11:58:27;;;;;;;;;;;16.70;99.90;;;;;;4135622;28;19948;-60
2022/09/25 12:00:54;;;;;;;;;;;16.70;99.90;;;;;;4134238;28;19913;-64
2022/09/25 12:03:14;;;;;;;;;;;16.80;99.90;;;;;;4131642;28;19945;-61
2022/09/25 12:05:21;;;;;;;;;;;16.80;99.90;;;;;;4127242;28;19968;-61
2022/09/25 12:07:28;;;;;;;;;;;16.70;99.90;;;;;;4136469;28;19984;-61
2022/09/25 12:09:39;;;;;;;;;;;16.70;99.90;;;;;;4134855;28;19967;-61
2022/09/25 12:11:44;;;;;;;;;;;16.70;99.90;;;;;;4126174;28;19918;-61
2022/09/25 12:13:57;;;;;;;;;;;16.80;99.90;;;;;;4126320;28;19913;-62
2022/09/25 12:16:07;;;;;;;;;;;16.70;99.90;;;;;;4126174;28;19984;-63
2022/09/25 12:18:11;;;;;;;;;;;16.70;99.90;;;;;;4126908;28;20321;-64
2022/09/25 12:20:22;;;;;;;;;;;16.80;99.90;;;;;;4134547;28;19971;-61
2022/09/25 12:22:26;;;;;;;;;;;16.80;99.90;;;;;;4135729;28;19913;-63
2022/09/25 12:24:35;;;;;;;;;;;16.70;99.90;;;;;;4135520;28;19984;-64